sensor_id;sensor_type;location;lat;lon;timestamp;P1;durP1;ratioP1;P2;durP2;ratioP2
67995;SDS011;54772;53.544;49.324;2022-12-10T00:01:42;5.30;;;2.97;;
67995;SDS011;54772;53.544;49.324;2022-12-10T00:04:29;6.68;;;3.67;;
67995;SDS011;54772;53.544;49.324;2022-12-10T00:07:16;8.77;;;3.90;;
67995;SDS011;54772;53.544;49.324;2022-12-10T00:10:03;6.97;;;3.92;;
67995;SDS011;54772;53.544;49.324;2022-12-10T00:12:49;7.60;;;4.40;;
67995;SDS011;54772;53.544;49.324;2022-12-10T00:15:36;8.07;;;4.62;;
67995;SDS011;54772;53.544;49.324;2022-12-10T00:18:23;10.95;;;4.97;;
67995;SDS011;54772;53.544;49.324;2022-12-10T00:23:57;8.47;;;5.10;;
67995;SDS011;54772;53.544;49.324;2022-12-10T00:26:44;9.00;;;5.85;;
67995;SDS011;54772;53.544;49.324;2022-12-10T00:29:31;9.73;;;5.85;;
67995;SDS011;54772;53.544;49.324;2022-12-10T00:32:17;10.70;;;6.12;;
67995;SDS011;54772;53.544;49.324;2022-12-10T00:35:04;12.65;;;6.60;;
67995;SDS011;54772;53.544;49.324;2022-12-10T00:37:52;14.50;;;7.30;;
67995;SDS011;54772;53.544;49.324;2022-12-10T00:40:40;13.07;;;6.90;;
67995;SDS011;54772;53.544;49.324;2022-12-10T00:43:26;14.02;;;7.72;;
67995;SDS011;54772;53.544;49.324;2022-12-10T00:46:14;12.88;;;7.28;;
67995;SDS011;54772;53.544;49.324;2022-12-10T00:49:01;13.45;;;7.35;;
67995;SDS011;54772;53.544;49.324;2022-12-10T00:51:48;16.23;;;8.98;;
67995;SDS011;54772;53.544;49.324;2022-12-10T00:54:35;20.85;;;8.15;;
67995;SDS011;54772;53.544;49.324;2022-12-10T00:57:22;15.25;;;8.48;;
67995;SDS011;54772;53.544;49.324;2022-12-10T01:00:09;14.70;;;8.98;;
67995;SDS011;54772;53.544;49.324;2022-12-10T01:02:56;17.92;;;8.93;;
67995;SDS011;54772;53.544;49.324;2022-12-10T01:05:43;16.23;;;9.07;;
67995;SDS011;54772;53.544;49.324;2022-12-10T01:08:29;15.80;;;9.05;;
67995;SDS011;54772;53.544;49.324;2022-12-10T01:11:16;15.07;;;9.65;;
67995;SDS011;54772;53.544;49.324;2022-12-10T01:14:04;14.38;;;8.02;;
67995;SDS011;54772;53.544;49.324;2022-12-10T01:16:57;15.40;;;10.05;;
67995;SDS011;54772;53.544;49.324;2022-12-10T01:19:44;24.73;;;9.85;;
67995;SDS011;54772;53.544;49.324;2022-12-10T01:22:31;14.95;;;9.70;;
67995;SDS011;54772;53.544;49.324;2022-12-10T01:25:17;17.23;;;10.70;;
67995;SDS011;54772;53.544;49.324;2022-12-10T01:28:04;25.15;;;8.07;;
67995;SDS011;54772;53.544;49.324;2022-12-10T01:30:50;14.45;;;9.00;;
67995;SDS011;54772;53.544;49.324;2022-12-10T01:33:38;17.30;;;8.90;;
67995;SDS011;54772;53.544;49.324;2022-12-10T01:36:26;15.95;;;8.45;;
67995;SDS011;54772;53.544;49.324;2022-12-10T01:39:17;19.77;;;9.48;;
67995;SDS011;54772;53.544;49.324;2022-12-10T01:42:05;15.55;;;9.77;;
67995;SDS011;54772;53.544;49.324;2022-12-10T01:44:59;16.35;;;8.65;;
67995;SDS011;54772;53.544;49.324;2022-12-10T01:47:49;16.05;;;8.75;;
67995;SDS011;54772;53.544;49.324;2022-12-10T01:50:36;22.67;;;10.40;;
67995;SDS011;54772;53.544;49.324;2022-12-10T01:53:23;17.75;;;9.57;;
67995;SDS011;54772;53.544;49.324;2022-12-10T01:56:10;15.93;;;9.32;;
67995;SDS011;54772;53.544;49.324;2022-12-10T02:11:13;14.32;;;8.35;;
67995;SDS011;54772;53.544;49.324;2022-12-10T02:14:29;14.80;;;8.88;;
67995;SDS011;54772;53.544;49.324;2022-12-10T02:17:36;12.35;;;8.18;;
67995;SDS011;54772;53.544;49.324;2022-12-10T02:20:46;14.32;;;9.43;;
67995;SDS011;54772;53.544;49.324;2022-12-10T02:23:57;13.35;;;8.00;;
67995;SDS011;54772;53.544;49.324;2022-12-10T02:30:14;11.90;;;7.05;;
67995;SDS011;54772;53.544;49.324;2022-12-10T02:33:01;10.25;;;6.37;;
67995;SDS011;54772;53.544;49.324;2022-12-10T02:35:49;10.48;;;6.20;;
67995;SDS011;54772;53.544;49.324;2022-12-10T02:41:25;14.68;;;6.22;;
67995;SDS011;54772;53.544;49.324;2022-12-10T02:44:16;9.75;;;5.68;;
67995;SDS011;54772;53.544;49.324;2022-12-10T02:47:04;10.60;;;6.18;;
67995;SDS011;54772;53.544;49.324;2022-12-10T02:49:52;13.35;;;6.75;;
67995;SDS011;54772;53.544;49.324;2022-12-10T02:52:40;10.60;;;5.68;;
67995;SDS011;54772;53.544;49.324;2022-12-10T02:55:27;12.15;;;5.90;;
67995;SDS011;54772;53.544;49.324;2022-12-10T03:01:23;9.60;;;5.95;;
67995;SDS011;54772;53.544;49.324;2022-12-10T03:04:22;8.60;;;5.25;;
67995;SDS011;54772;53.544;49.324;2022-12-10T03:07:42;10.02;;;5.87;;
67995;SDS011;54772;53.544;49.324;2022-12-10T03:14:00;9.55;;;5.40;;
67995;SDS011;54772;53.544;49.324;2022-12-10T03:17:00;7.47;;;4.87;;
67995;SDS011;54772;53.544;49.324;2022-12-10T03:19:48;14.70;;;5.15;;
67995;SDS011;54772;53.544;49.324;2022-12-10T03:22:36;9.18;;;5.03;;
67995;SDS011;54772;53.544;49.324;2022-12-10T03:25:26;8.10;;;5.20;;
67995;SDS011;54772;53.544;49.324;2022-12-10T03:28:15;6.97;;;5.05;;
67995;SDS011;54772;53.544;49.324;2022-12-10T03:31:03;9.80;;;5.32;;
67995;SDS011;54772;53.544;49.324;2022-12-10T03:36:37;8.50;;;4.78;;
67995;SDS011;54772;53.544;49.324;2022-12-10T03:39:25;7.30;;;4.37;;
67995;SDS011;54772;53.544;49.324;2022-12-10T03:44:58;7.20;;;4.53;;
67995;SDS011;54772;53.544;49.324;2022-12-10T03:47:44;8.40;;;5.50;;
67995;SDS011;54772;53.544;49.324;2022-12-10T03:50:31;9.20;;;5.57;;
67995;SDS011;54772;53.544;49.324;2022-12-10T03:53:18;8.65;;;5.10;;
67995;SDS011;54772;53.544;49.324;2022-12-10T03:56:04;7.10;;;4.72;;
67995;SDS011;54772;53.544;49.324;2022-12-10T03:58:51;7.18;;;4.32;;
67995;SDS011;54772;53.544;49.324;2022-12-10T04:01:38;8.00;;;4.97;;
67995;SDS011;54772;53.544;49.324;2022-12-10T04:04:25;7.00;;;4.43;;
67995;SDS011;54772;53.544;49.324;2022-12-10T04:07:12;8.27;;;5.43;;
67995;SDS011;54772;53.544;49.324;2022-12-10T04:09:59;7.90;;;5.00;;
67995;SDS011;54772;53.544;49.324;2022-12-10T04:12:45;10.00;;;5.30;;
67995;SDS011;54772;53.544;49.324;2022-12-10T04:15:52;8.55;;;5.28;;
67995;SDS011;54772;53.544;49.324;2022-12-10T04:19:03;10.93;;;5.70;;
67995;SDS011;54772;53.544;49.324;2022-12-10T04:21:51;9.77;;;4.35;;
67995;SDS011;54772;53.544;49.324;2022-12-10T04:25:13;7.47;;;4.40;;
67995;SDS011;54772;53.544;49.324;2022-12-10T04:28:19;10.18;;;4.87;;
67995;SDS011;54772;53.544;49.324;2022-12-10T04:31:05;9.15;;;5.25;;
67995;SDS011;54772;53.544;49.324;2022-12-10T04:33:52;8.52;;;5.12;;
67995;SDS011;54772;53.544;49.324;2022-12-10T04:36:39;8.05;;;4.80;;
67995;SDS011;54772;53.544;49.324;2022-12-10T04:39:25;9.25;;;5.10;;
67995;SDS011;54772;53.544;49.324;2022-12-10T04:42:12;8.80;;;4.57;;
67995;SDS011;54772;53.544;49.324;2022-12-10T04:44:59;9.77;;;5.62;;
67995;SDS011;54772;53.544;49.324;2022-12-10T04:47:45;8.95;;;4.97;;
67995;SDS011;54772;53.544;49.324;2022-12-10T04:50:32;7.82;;;4.93;;
67995;SDS011;54772;53.544;49.324;2022-12-10T04:53:19;6.18;;;4.10;;
67995;SDS011;54772;53.544;49.324;2022-12-10T04:56:07;11.35;;;5.20;;
67995;SDS011;54772;53.544;49.324;2022-12-10T04:58:54;7.93;;;4.32;;
67995;SDS011;54772;53.544;49.324;2022-12-10T05:01:42;7.47;;;4.07;;
67995;SDS011;54772;53.544;49.324;2022-12-10T05:04:29;7.07;;;4.05;;
67995;SDS011;54772;53.544;49.324;2022-12-10T05:07:15;8.93;;;4.85;;
67995;SDS011;54772;53.544;49.324;2022-12-10T05:10:02;5.80;;;3.85;;
67995;SDS011;54772;53.544;49.324;2022-12-10T05:12:49;9.15;;;4.40;;
67995;SDS011;54772;53.544;49.324;2022-12-10T05:15:39;6.90;;;4.57;;
67995;SDS011;54772;53.544;49.324;2022-12-10T05:18:26;7.28;;;4.20;;
67995;SDS011;54772;53.544;49.324;2022-12-10T05:21:13;7.45;;;3.65;;
67995;SDS011;54772;53.544;49.324;2022-12-10T05:24:01;6.12;;;3.55;;
67995;SDS011;54772;53.544;49.324;2022-12-10T05:26:47;6.25;;;4.20;;
67995;SDS011;54772;53.544;49.324;2022-12-10T05:29:36;8.57;;;4.90;;
67995;SDS011;54772;53.544;49.324;2022-12-10T05:32:23;6.20;;;3.95;;
67995;SDS011;54772;53.544;49.324;2022-12-10T05:35:09;5.68;;;3.55;;
67995;SDS011;54772;53.544;49.324;2022-12-10T05:37:56;7.65;;;3.20;;
67995;SDS011;54772;53.544;49.324;2022-12-10T05:40:43;7.72;;;3.50;;
67995;SDS011;54772;53.544;49.324;2022-12-10T05:43:29;6.50;;;3.37;;
67995;SDS011;54772;53.544;49.324;2022-12-10T05:46:18;4.95;;;3.10;;
67995;SDS011;54772;53.544;49.324;2022-12-10T05:49:09;6.78;;;3.78;;
67995;SDS011;54772;53.544;49.324;2022-12-10T05:51:56;5.70;;;2.97;;
67995;SDS011;54772;53.544;49.324;2022-12-10T05:54:42;7.75;;;3.22;;
67995;SDS011;54772;53.544;49.324;2022-12-10T05:57:29;7.47;;;3.70;;
67995;SDS011;54772;53.544;49.324;2022-12-10T06:00:16;5.55;;;3.08;;
67995;SDS011;54772;53.544;49.324;2022-12-10T06:03:03;5.68;;;2.72;;
67995;SDS011;54772;53.544;49.324;2022-12-10T06:05:49;7.00;;;2.95;;
67995;SDS011;54772;53.544;49.324;2022-12-10T06:11:25;4.30;;;2.47;;
67995;SDS011;54772;53.544;49.324;2022-12-10T06:14:12;10.07;;;2.92;;
67995;SDS011;54772;53.544;49.324;2022-12-10T06:16:59;4.12;;;2.42;;
67995;SDS011;54772;53.544;49.324;2022-12-10T06:19:46;5.12;;;2.90;;
67995;SDS011;54772;53.544;49.324;2022-12-10T06:22:33;5.37;;;2.50;;
67995;SDS011;54772;53.544;49.324;2022-12-10T06:25:20;6.22;;;2.60;;
67995;SDS011;54772;53.544;49.324;2022-12-10T06:28:07;8.82;;;3.12;;
67995;SDS011;54772;53.544;49.324;2022-12-10T06:30:54;7.55;;;2.37;;
67995;SDS011;54772;53.544;49.324;2022-12-10T06:33:42;6.68;;;2.90;;
67995;SDS011;54772;53.544;49.324;2022-12-10T06:36:29;4.25;;;2.50;;
67995;SDS011;54772;53.544;49.324;2022-12-10T06:39:16;5.32;;;2.40;;
67995;SDS011;54772;53.544;49.324;2022-12-10T06:42:02;6.82;;;2.60;;
67995;SDS011;54772;53.544;49.324;2022-12-10T06:44:50;5.47;;;2.80;;
67995;SDS011;54772;53.544;49.324;2022-12-10T06:47:37;2.90;;;1.90;;
67995;SDS011;54772;53.544;49.324;2022-12-10T06:50:23;3.05;;;1.87;;
67995;SDS011;54772;53.544;49.324;2022-12-10T06:53:10;5.25;;;2.40;;
67995;SDS011;54772;53.544;49.324;2022-12-10T06:58:44;4.07;;;2.10;;
67995;SDS011;54772;53.544;49.324;2022-12-10T07:01:31;5.55;;;2.40;;
67995;SDS011;54772;53.544;49.324;2022-12-10T07:04:18;4.45;;;2.35;;
67995;SDS011;54772;53.544;49.324;2022-12-10T07:07:05;6.15;;;2.60;;
67995;SDS011;54772;53.544;49.324;2022-12-10T07:09:52;4.45;;;2.17;;
67995;SDS011;54772;53.544;49.324;2022-12-10T07:12:38;3.47;;;2.40;;
67995;SDS011;54772;53.544;49.324;2022-12-10T07:15:25;5.57;;;2.20;;
67995;SDS011;54772;53.544;49.324;2022-12-10T07:20:59;6.00;;;2.37;;
67995;SDS011;54772;53.544;49.324;2022-12-10T07:23:46;5.30;;;2.28;;
67995;SDS011;54772;53.544;49.324;2022-12-10T07:26:34;5.15;;;2.30;;
67995;SDS011;54772;53.544;49.324;2022-12-10T07:29:21;3.00;;;1.95;;
67995;SDS011;54772;53.544;49.324;2022-12-10T07:32:08;5.50;;;2.40;;
67995;SDS011;54772;53.544;49.324;2022-12-10T07:34:55;3.90;;;2.40;;
67995;SDS011;54772;53.544;49.324;2022-12-10T07:37:42;4.78;;;2.33;;
67995;SDS011;54772;53.544;49.324;2022-12-10T07:40:19;7.22;;;2.42;;
67995;SDS011;54772;53.544;49.324;2022-12-10T07:43:08;5.85;;;2.37;;
67995;SDS011;54772;53.544;49.324;2022-12-10T07:48:42;6.20;;;2.25;;
67995;SDS011;54772;53.544;49.324;2022-12-10T07:51:30;5.82;;;2.42;;
67995;SDS011;54772;53.544;49.324;2022-12-10T07:54:16;3.58;;;2.12;;
67995;SDS011;54772;53.544;49.324;2022-12-10T07:57:03;4.70;;;2.47;;
67995;SDS011;54772;53.544;49.324;2022-12-10T07:59:50;6.53;;;2.50;;
67995;SDS011;54772;53.544;49.324;2022-12-10T08:02:36;4.37;;;2.22;;
67995;SDS011;54772;53.544;49.324;2022-12-10T08:05:23;5.40;;;2.60;;
67995;SDS011;54772;53.544;49.324;2022-12-10T08:08:10;4.57;;;2.20;;
67995;SDS011;54772;53.544;49.324;2022-12-10T08:10:58;8.43;;;2.53;;
67995;SDS011;54772;53.544;49.324;2022-12-10T08:13:46;5.97;;;2.45;;
67995;SDS011;54772;53.544;49.324;2022-12-10T08:16:34;5.37;;;2.53;;
67995;SDS011;54772;53.544;49.324;2022-12-10T08:19:21;3.08;;;1.90;;
67995;SDS011;54772;53.544;49.324;2022-12-10T08:22:07;6.18;;;2.45;;
67995;SDS011;54772;53.544;49.324;2022-12-10T08:24:54;4.53;;;2.53;;
67995;SDS011;54772;53.544;49.324;2022-12-10T08:27:40;6.57;;;2.70;;
67995;SDS011;54772;53.544;49.324;2022-12-10T08:30:27;4.68;;;2.33;;
67995;SDS011;54772;53.544;49.324;2022-12-10T08:36:00;5.28;;;2.40;;
67995;SDS011;54772;53.544;49.324;2022-12-10T08:38:48;6.15;;;2.60;;
67995;SDS011;54772;53.544;49.324;2022-12-10T08:41:34;10.85;;;2.55;;
67995;SDS011;54772;53.544;49.324;2022-12-10T08:44:21;4.20;;;1.98;;
67995;SDS011;54772;53.544;49.324;2022-12-10T08:47:08;6.05;;;2.60;;
67995;SDS011;54772;53.544;49.324;2022-12-10T08:49:54;5.87;;;2.30;;
67995;SDS011;54772;53.544;49.324;2022-12-10T08:52:41;3.75;;;2.20;;
67995;SDS011;54772;53.544;49.324;2022-12-10T08:55:27;7.43;;;2.72;;
67995;SDS011;54772;53.544;49.324;2022-12-10T08:58:14;7.07;;;2.37;;
67995;SDS011;54772;53.544;49.324;2022-12-10T09:01:05;6.78;;;2.35;;
67995;SDS011;54772;53.544;49.324;2022-12-10T09:03:53;5.15;;;2.20;;
67995;SDS011;54772;53.544;49.324;2022-12-10T09:06:40;3.78;;;2.08;;
67995;SDS011;54772;53.544;49.324;2022-12-10T09:09:27;6.75;;;2.75;;
67995;SDS011;54772;53.544;49.324;2022-12-10T09:12:13;4.53;;;2.67;;
67995;SDS011;54772;53.544;49.324;2022-12-10T09:15:00;6.18;;;2.90;;
67995;SDS011;54772;53.544;49.324;2022-12-10T09:17:47;3.22;;;1.85;;
67995;SDS011;54772;53.544;49.324;2022-12-10T09:20:34;4.97;;;2.08;;
67995;SDS011;54772;53.544;49.324;2022-12-10T09:23:23;5.60;;;2.17;;
67995;SDS011;54772;53.544;49.324;2022-12-10T09:26:11;4.93;;;2.00;;
67995;SDS011;54772;53.544;49.324;2022-12-10T09:29:01;4.22;;;2.55;;
67995;SDS011;54772;53.544;49.324;2022-12-10T09:31:51;6.12;;;2.37;;
67995;SDS011;54772;53.544;49.324;2022-12-10T09:34:38;4.22;;;2.42;;
67995;SDS011;54772;53.544;49.324;2022-12-10T09:37:24;7.05;;;2.72;;
67995;SDS011;54772;53.544;49.324;2022-12-10T09:40:15;6.05;;;2.12;;
67995;SDS011;54772;53.544;49.324;2022-12-10T09:52:42;6.97;;;2.67;;
67995;SDS011;54772;53.544;49.324;2022-12-10T09:55:32;7.60;;;2.50;;
67995;SDS011;54772;53.544;49.324;2022-12-10T09:58:25;4.37;;;2.30;;
67995;SDS011;54772;53.544;49.324;2022-12-10T10:01:12;10.27;;;2.47;;
67995;SDS011;54772;53.544;49.324;2022-12-10T10:04:02;5.20;;;2.25;;
67995;SDS011;54772;53.544;49.324;2022-12-10T10:06:49;4.80;;;2.33;;
67995;SDS011;54772;53.544;49.324;2022-12-10T10:09:37;6.05;;;2.35;;
67995;SDS011;54772;53.544;49.324;2022-12-10T10:12:28;4.85;;;2.37;;
67995;SDS011;54772;53.544;49.324;2022-12-10T10:15:18;8.90;;;2.45;;
67995;SDS011;54772;53.544;49.324;2022-12-10T10:18:17;8.48;;;2.30;;
67995;SDS011;54772;53.544;49.324;2022-12-10T10:21:22;7.82;;;3.20;;
67995;SDS011;54772;53.544;49.324;2022-12-10T10:24:15;3.87;;;2.25;;
67995;SDS011;54772;53.544;49.324;2022-12-10T10:27:22;5.28;;;2.75;;
67995;SDS011;54772;53.544;49.324;2022-12-10T10:30:16;4.75;;;2.10;;
67995;SDS011;54772;53.544;49.324;2022-12-10T10:33:07;5.90;;;2.10;;
67995;SDS011;54772;53.544;49.324;2022-12-10T10:35:54;5.22;;;2.42;;
67995;SDS011;54772;53.544;49.324;2022-12-10T10:38:47;4.50;;;1.98;;
67995;SDS011;54772;53.544;49.324;2022-12-10T10:41:37;5.25;;;2.83;;
67995;SDS011;54772;53.544;49.324;2022-12-10T10:44:33;6.65;;;2.20;;
67995;SDS011;54772;53.544;49.324;2022-12-10T10:47:26;5.03;;;2.50;;
67995;SDS011;54772;53.544;49.324;2022-12-10T10:50:14;5.20;;;2.33;;
67995;SDS011;54772;53.544;49.324;2022-12-10T10:53:23;3.28;;;2.05;;
67995;SDS011;54772;53.544;49.324;2022-12-10T10:56:20;6.12;;;2.45;;
67995;SDS011;54772;53.544;49.324;2022-12-10T11:02:04;4.50;;;2.05;;
67995;SDS011;54772;53.544;49.324;2022-12-10T11:05:23;3.22;;;2.03;;
67995;SDS011;54772;53.544;49.324;2022-12-10T11:08:17;5.45;;;2.30;;
67995;SDS011;54772;53.544;49.324;2022-12-10T11:11:10;6.65;;;2.53;;
67995;SDS011;54772;53.544;49.324;2022-12-10T11:14:48;6.10;;;2.33;;
67995;SDS011;54772;53.544;49.324;2022-12-10T11:23:05;5.30;;;2.17;;
67995;SDS011;54772;53.544;49.324;2022-12-10T11:40:37;3.70;;;2.30;;
67995;SDS011;54772;53.544;49.324;2022-12-10T11:53:04;5.25;;;2.28;;
67995;SDS011;54772;53.544;49.324;2022-12-10T11:59:37;4.60;;;2.58;;
67995;SDS011;54772;53.544;49.324;2022-12-10T12:15:51;8.80;;;2.50;;
67995;SDS011;54772;53.544;49.324;2022-12-10T12:18:49;5.62;;;2.62;;
67995;SDS011;54772;53.544;49.324;2022-12-10T12:21:44;3.53;;;2.37;;
67995;SDS011;54772;53.544;49.324;2022-12-10T12:24:36;3.53;;;2.03;;
67995;SDS011;54772;53.544;49.324;2022-12-10T12:27:29;7.45;;;2.45;;
67995;SDS011;54772;53.544;49.324;2022-12-10T12:30:38;5.32;;;2.10;;
67995;SDS011;54772;53.544;49.324;2022-12-10T12:33:28;4.80;;;2.10;;
67995;SDS011;54772;53.544;49.324;2022-12-10T12:36:39;4.12;;;2.17;;
67995;SDS011;54772;53.544;49.324;2022-12-10T12:43:02;7.03;;;2.08;;
67995;SDS011;54772;53.544;49.324;2022-12-10T12:45:43;5.72;;;2.60;;
67995;SDS011;54772;53.544;49.324;2022-12-10T12:51:40;5.45;;;2.53;;
67995;SDS011;54772;53.544;49.324;2022-12-10T12:54:40;8.63;;;2.60;;
67995;SDS011;54772;53.544;49.324;2022-12-10T13:00:17;4.97;;;2.17;;
67995;SDS011;54772;53.544;49.324;2022-12-10T13:06:16;3.05;;;1.37;;
67995;SDS011;54772;53.544;49.324;2022-12-10T13:15:13;4.53;;;1.77;;
67995;SDS011;54772;53.544;49.324;2022-12-10T13:21:30;4.43;;;2.45;;
67995;SDS011;54772;53.544;49.324;2022-12-10T13:24:21;3.53;;;1.77;;
67995;SDS011;54772;53.544;49.324;2022-12-10T13:27:30;3.20;;;1.70;;
67995;SDS011;54772;53.544;49.324;2022-12-10T13:30:27;4.87;;;1.98;;
67995;SDS011;54772;53.544;49.324;2022-12-10T13:33:19;3.67;;;2.05;;
67995;SDS011;54772;53.544;49.324;2022-12-10T13:36:06;6.50;;;2.25;;
67995;SDS011;54772;53.544;49.324;2022-12-10T14:00:52;2.17;;;1.40;;
67995;SDS011;54772;53.544;49.324;2022-12-10T14:06:39;3.15;;;1.73;;
67995;SDS011;54772;53.544;49.324;2022-12-10T14:09:30;2.75;;;1.55;;
67995;SDS011;54772;53.544;49.324;2022-12-10T14:12:22;4.55;;;1.92;;
67995;SDS011;54772;53.544;49.324;2022-12-10T14:15:24;2.22;;;1.48;;
67995;SDS011;54772;53.544;49.324;2022-12-10T14:18:12;3.42;;;1.60;;
67995;SDS011;54772;53.544;49.324;2022-12-10T14:21:02;3.10;;;1.90;;
67995;SDS011;54772;53.544;49.324;2022-12-10T14:23:51;4.93;;;1.70;;
67995;SDS011;54772;53.544;49.324;2022-12-10T14:26:38;2.85;;;1.70;;
67995;SDS011;54772;53.544;49.324;2022-12-10T14:29:24;3.33;;;2.00;;
67995;SDS011;54772;53.544;49.324;2022-12-10T14:32:15;3.72;;;1.80;;
67995;SDS011;54772;53.544;49.324;2022-12-10T14:35:13;2.60;;;1.20;;
67995;SDS011;54772;53.544;49.324;2022-12-10T14:38:12;3.83;;;1.80;;
67995;SDS011;54772;53.544;49.324;2022-12-10T14:41:04;4.30;;;1.60;;
67995;SDS011;54772;53.544;49.324;2022-12-10T14:43:51;4.15;;;1.62;;
67995;SDS011;54772;53.544;49.324;2022-12-10T14:46:38;3.50;;;1.67;;
67995;SDS011;54772;53.544;49.324;2022-12-10T14:49:25;7.40;;;1.73;;
67995;SDS011;54772;53.544;49.324;2022-12-10T14:52:16;2.28;;;1.40;;
67995;SDS011;54772;53.544;49.324;2022-12-10T14:55:11;2.90;;;1.50;;
67995;SDS011;54772;53.544;49.324;2022-12-10T14:58:00;3.65;;;1.30;;
67995;SDS011;54772;53.544;49.324;2022-12-10T15:00:48;3.85;;;1.60;;
67995;SDS011;54772;53.544;49.324;2022-12-10T15:03:37;5.30;;;1.30;;
67995;SDS011;54772;53.544;49.324;2022-12-10T15:06:32;4.78;;;1.70;;
67995;SDS011;54772;53.544;49.324;2022-12-10T15:09:23;3.67;;;1.67;;
67995;SDS011;54772;53.544;49.324;2022-12-10T15:12:45;2.47;;;1.05;;
67995;SDS011;54772;53.544;49.324;2022-12-10T15:18:20;6.53;;;1.80;;
67995;SDS011;54772;53.544;49.324;2022-12-10T15:21:18;5.15;;;1.80;;
67995;SDS011;54772;53.544;49.324;2022-12-10T15:24:07;6.82;;;2.12;;
67995;SDS011;54772;53.544;49.324;2022-12-10T15:27:01;5.87;;;1.80;;
67995;SDS011;54772;53.544;49.324;2022-12-10T15:29:48;3.28;;;1.35;;
67995;SDS011;54772;53.544;49.324;2022-12-10T15:32:35;1.95;;;1.42;;
67995;SDS011;54772;53.544;49.324;2022-12-10T15:35:22;1.83;;;1.35;;
67995;SDS011;54772;53.544;49.324;2022-12-10T15:38:12;3.03;;;1.35;;
67995;SDS011;54772;53.544;49.324;2022-12-10T15:41:20;7.85;;;1.77;;
67995;SDS011;54772;53.544;49.324;2022-12-10T15:47:24;3.97;;;1.45;;
67995;SDS011;54772;53.544;49.324;2022-12-10T15:50:12;4.95;;;1.60;;
67995;SDS011;54772;53.544;49.324;2022-12-10T15:52:59;3.75;;;1.70;;
67995;SDS011;54772;53.544;49.324;2022-12-10T15:55:46;2.67;;;1.12;;
67995;SDS011;54772;53.544;49.324;2022-12-10T15:58:32;4.40;;;1.55;;
67995;SDS011;54772;53.544;49.324;2022-12-10T16:01:19;5.32;;;1.35;;
67995;SDS011;54772;53.544;49.324;2022-12-10T16:06:53;1.83;;;1.08;;
67995;SDS011;54772;53.544;49.324;2022-12-10T16:09:40;1.40;;;1.00;;
67995;SDS011;54772;53.544;49.324;2022-12-10T16:12:27;2.95;;;1.40;;
67995;SDS011;54772;53.544;49.324;2022-12-10T16:15:17;3.70;;;1.58;;
67995;SDS011;54772;53.544;49.324;2022-12-10T16:18:09;3.22;;;1.48;;
67995;SDS011;54772;53.544;49.324;2022-12-10T16:20:57;4.20;;;1.40;;
67995;SDS011;54772;53.544;49.324;2022-12-10T16:23:43;2.10;;;1.37;;
67995;SDS011;54772;53.544;49.324;2022-12-10T16:26:32;2.30;;;1.50;;
67995;SDS011;54772;53.544;49.324;2022-12-10T16:29:18;2.55;;;1.30;;
67995;SDS011;54772;53.544;49.324;2022-12-10T16:32:07;3.25;;;1.30;;
67995;SDS011;54772;53.544;49.324;2022-12-10T16:34:55;2.78;;;1.30;;
67995;SDS011;54772;53.544;49.324;2022-12-10T16:37:42;2.08;;;1.12;;
67995;SDS011;54772;53.544;49.324;2022-12-10T16:40:29;1.48;;;1.02;;
67995;SDS011;54772;53.544;49.324;2022-12-10T16:43:20;3.42;;;1.35;;
67995;SDS011;54772;53.544;49.324;2022-12-10T16:46:09;3.20;;;1.27;;
67995;SDS011;54772;53.544;49.324;2022-12-10T16:48:56;2.03;;;1.40;;
67995;SDS011;54772;53.544;49.324;2022-12-10T16:51:43;1.60;;;1.23;;
67995;SDS011;54772;53.544;49.324;2022-12-10T16:54:29;4.22;;;1.50;;
67995;SDS011;54772;53.544;49.324;2022-12-10T16:57:16;3.72;;;1.23;;
67995;SDS011;54772;53.544;49.324;2022-12-10T17:00:03;4.37;;;1.40;;
67995;SDS011;54772;53.544;49.324;2022-12-10T17:02:50;3.60;;;0.75;;
67995;SDS011;54772;53.544;49.324;2022-12-10T17:05:39;3.70;;;1.42;;
67995;SDS011;54772;53.544;49.324;2022-12-10T17:08:29;2.97;;;1.40;;
67995;SDS011;54772;53.544;49.324;2022-12-10T17:11:28;2.58;;;1.52;;
67995;SDS011;54772;53.544;49.324;2022-12-10T17:14:30;2.65;;;1.33;;
67995;SDS011;54772;53.544;49.324;2022-12-10T17:17:19;3.72;;;1.40;;
67995;SDS011;54772;53.544;49.324;2022-12-10T17:20:13;1.92;;;1.10;;
67995;SDS011;54772;53.544;49.324;2022-12-10T17:23:02;3.53;;;1.27;;
67995;SDS011;54772;53.544;49.324;2022-12-10T17:25:48;2.83;;;1.00;;
67995;SDS011;54772;53.544;49.324;2022-12-10T17:31:21;3.00;;;1.25;;
67995;SDS011;54772;53.544;49.324;2022-12-10T17:34:09;3.35;;;1.40;;
67995;SDS011;54772;53.544;49.324;2022-12-10T17:36:56;3.50;;;1.05;;
67995;SDS011;54772;53.544;49.324;2022-12-10T17:39:43;2.42;;;1.30;;
67995;SDS011;54772;53.544;49.324;2022-12-10T17:42:30;2.33;;;1.42;;
67995;SDS011;54772;53.544;49.324;2022-12-10T17:45:17;2.83;;;1.40;;
67995;SDS011;54772;53.544;49.324;2022-12-10T17:48:04;2.45;;;1.40;;
67995;SDS011;54772;53.544;49.324;2022-12-10T17:50:51;3.22;;;1.62;;
67995;SDS011;54772;53.544;49.324;2022-12-10T17:53:38;3.00;;;1.17;;
67995;SDS011;54772;53.544;49.324;2022-12-10T17:59:14;1.15;;;0.62;;
67995;SDS011;54772;53.544;49.324;2022-12-10T18:02:01;3.22;;;1.35;;
67995;SDS011;54772;53.544;49.324;2022-12-10T18:04:48;3.00;;;1.50;;
67995;SDS011;54772;53.544;49.324;2022-12-10T18:07:35;3.08;;;1.48;;
67995;SDS011;54772;53.544;49.324;2022-12-10T18:10:23;3.40;;;1.20;;
67995;SDS011;54772;53.544;49.324;2022-12-10T18:13:11;2.78;;;1.15;;
67995;SDS011;54772;53.544;49.324;2022-12-10T18:15:58;4.60;;;1.30;;
67995;SDS011;54772;53.544;49.324;2022-12-10T18:18:45;4.60;;;1.77;;
67995;SDS011;54772;53.544;49.324;2022-12-10T18:21:32;2.45;;;1.27;;
67995;SDS011;54772;53.544;49.324;2022-12-10T18:27:08;2.57;;;1.40;;
67995;SDS011;54772;53.544;49.324;2022-12-10T18:29:56;2.92;;;1.25;;
67995;SDS011;54772;53.544;49.324;2022-12-10T18:32:43;2.87;;;1.00;;
67995;SDS011;54772;53.544;49.324;2022-12-10T18:35:29;2.22;;;1.10;;
67995;SDS011;54772;53.544;49.324;2022-12-10T18:38:17;2.90;;;1.27;;
67995;SDS011;54772;53.544;49.324;2022-12-10T18:41:03;5.65;;;1.50;;
67995;SDS011;54772;53.544;49.324;2022-12-10T18:43:54;3.40;;;1.50;;
67995;SDS011;54772;53.544;49.324;2022-12-10T18:46:41;3.37;;;1.35;;
67995;SDS011;54772;53.544;49.324;2022-12-10T18:49:28;3.25;;;1.45;;
67995;SDS011;54772;53.544;49.324;2022-12-10T18:52:16;3.05;;;1.50;;
67995;SDS011;54772;53.544;49.324;2022-12-10T18:57:50;3.47;;;1.67;;
67995;SDS011;54772;53.544;49.324;2022-12-10T19:00:36;6.15;;;1.80;;
67995;SDS011;54772;53.544;49.324;2022-12-10T19:03:24;2.83;;;1.50;;
67995;SDS011;54772;53.544;49.324;2022-12-10T19:06:18;3.83;;;1.48;;
67995;SDS011;54772;53.544;49.324;2022-12-10T19:09:10;4.20;;;1.52;;
67995;SDS011;54772;53.544;49.324;2022-12-10T19:12:01;4.95;;;1.70;;
67995;SDS011;54772;53.544;49.324;2022-12-10T19:14:48;2.25;;;1.40;;
67995;SDS011;54772;53.544;49.324;2022-12-10T19:17:35;3.67;;;1.70;;
67995;SDS011;54772;53.544;49.324;2022-12-10T19:20:22;5.22;;;1.60;;
67995;SDS011;54772;53.544;49.324;2022-12-10T19:23:09;2.47;;;1.30;;
67995;SDS011;54772;53.544;49.324;2022-12-10T19:25:56;6.12;;;1.90;;
67995;SDS011;54772;53.544;49.324;2022-12-10T19:28:43;3.55;;;1.30;;
67995;SDS011;54772;53.544;49.324;2022-12-10T19:31:30;5.80;;;1.62;;
67995;SDS011;54772;53.544;49.324;2022-12-10T19:34:17;2.10;;;1.37;;
67995;SDS011;54772;53.544;49.324;2022-12-10T19:37:04;2.55;;;1.48;;
67995;SDS011;54772;53.544;49.324;2022-12-10T19:39:53;3.35;;;1.58;;